createdAt,value
2019-03-16T19:22:14.213Z,23.07
2019-03-16T19:23:01.720Z,23.10
2019-03-16T19:24:01.540Z,23.13
2019-03-16T19:25:01.499Z,23.10
2019-03-16T19:26:01.450Z,23.05
2019-03-16T19:27:01.404Z,23.07
2019-03-16T19:27:50.080Z,23.07
2019-03-16T19:28:49.939Z,23.09
2019-03-16T19:29:49.933Z,23.20
2019-03-16T19:30:49.900Z,23.19
2019-03-16T19:31:49.841Z,23.27
2019-03-16T19:32:49.814Z,23.20
2019-03-16T19:33:30.313Z,23.22
2019-03-16T19:34:18.391Z,23.19
2019-03-16T19:34:31.642Z,23.27
2019-03-16T19:35:31.669Z,23.32
2019-03-16T19:36:31.657Z,23.32
2019-03-16T19:37:31.585Z,23.17
2019-03-16T19:38:31.543Z,23.53
2019-03-16T19:39:31.526Z,23.46
2019-03-16T19:40:08.611Z,23.53
2019-03-16T19:40:45.363Z,23.47
2019-03-16T19:41:45.316Z,23.42
2019-03-16T19:42:46.677Z,23.50
2019-03-16T19:43:02.820Z,23.36
2019-03-16T19:43:35.359Z,23.58
2019-03-16T19:44:16.719Z,23.54
2019-03-16T19:45:16.662Z,23.40
2019-03-16T19:46:01.266Z,23.55
2019-03-16T19:46:15.904Z,23.51
2019-03-16T19:46:57.424Z,23.53
2019-03-16T19:47:46.717Z,23.55
2019-03-16T19:48:46.610Z,23.79
2019-03-16T19:49:46.601Z,23.66
2019-03-16T19:50:46.568Z,23.66
2019-03-16T19:51:46.497Z,23.66
2019-03-16T19:52:46.463Z,23.57
2019-03-16T19:53:46.427Z,23.76
2019-03-16T19:54:46.388Z,23.58
2019-03-16T19:55:46.352Z,23.63
2019-03-16T19:56:46.345Z,23.75
2019-03-16T19:57:46.286Z,23.61
2019-03-16T19:58:46.282Z,23.68
2019-03-16T19:59:46.222Z,23.78
2019-03-16T20:00:46.185Z,23.78
2019-03-16T20:01:46.147Z,23.68
2019-03-16T20:02:50.986Z,23.80
2019-03-16T20:03:46.184Z,23.66
2019-03-16T20:04:46.055Z,23.70
2019-03-16T20:05:46.020Z,23.72
2019-03-16T20:06:45.988Z,23.68
2019-03-16T20:07:45.958Z,23.65
2019-03-16T20:09:11.486Z,23.69
2019-03-16T20:10:11.424Z,23.66
2019-03-16T20:10:44.777Z,23.79
2019-03-16T20:11:31.705Z,23.63
2019-03-16T20:12:31.667Z,23.75
2019-03-16T20:13:31.631Z,23.69
2019-03-16T20:14:31.587Z,23.73
2019-03-16T20:15:31.570Z,23.58
2019-03-16T20:16:31.528Z,23.70
2019-03-16T20:17:31.492Z,23.72
2019-03-16T20:18:31.445Z,23.73
2019-03-16T20:19:31.374Z,23.57
2019-03-16T20:20:31.333Z,23.60
2019-03-16T20:21:31.279Z,23.72
2019-03-16T20:22:31.230Z,23.75
2019-03-16T20:23:31.183Z,23.69
2019-03-16T20:24:31.214Z,23.73
2019-03-16T20:25:31.117Z,23.76
2019-03-16T20:26:31.045Z,23.55
2019-03-16T20:27:30.991Z,23.65
2019-03-16T20:28:30.971Z,23.60
2019-03-16T20:29:30.895Z,23.57
2019-03-16T20:30:30.999Z,23.65
2019-03-16T20:31:30.802Z,23.55
2019-03-16T20:32:30.757Z,23.78
2019-03-16T20:33:30.709Z,23.70
2019-03-16T20:37:02.065Z,23.63
2019-03-16T20:39:26.500Z,23.54
2019-03-16T20:40:26.484Z,23.65
2019-03-16T20:40:43.636Z,23.69
2019-03-16T20:41:06.263Z,23.73
2019-03-16T20:41:56.127Z,23.57
2019-03-16T20:42:56.104Z,23.58
2019-03-16T20:43:56.060Z,23.66
2019-03-16T20:44:55.971Z,23.50
2019-03-16T20:45:55.913Z,23.51
2019-03-16T20:46:55.851Z,23.54
2019-03-16T20:47:55.789Z,23.50
2019-03-16T20:48:55.767Z,23.53
2019-03-16T20:49:55.673Z,23.63
2019-03-16T20:50:55.615Z,23.69
2019-03-16T20:51:55.558Z,23.60
2019-03-16T20:52:55.501Z,23.60
2019-03-16T20:53:55.446Z,23.69
2019-03-16T20:54:55.423Z,23.70
2019-03-16T20:55:55.359Z,23.65
2019-03-16T20:56:55.271Z,23.76
2019-03-16T20:57:55.214Z,23.85
2019-03-16T20:58:55.150Z,23.87
2019-03-16T20:59:55.086Z,23.97
2019-03-16T21:00:57.986Z,23.87
2019-03-16T21:01:54.970Z,23.87
2019-03-16T21:02:54.894Z,23.97
2019-03-16T21:03:54.830Z,23.94
2019-03-16T21:04:54.769Z,23.84
2019-03-16T21:05:54.706Z,24.00
2019-03-16T21:06:54.678Z,23.87
2019-03-16T21:07:59.993Z,23.98
2019-03-16T21:08:13.438Z,23.93
2019-03-16T21:09:13.421Z,23.88
2019-03-16T21:10:13.366Z,23.98
2019-03-16T21:11:13.334Z,24.03
2019-03-16T21:12:13.323Z,24.00
2019-03-16T21:13:08.854Z,23.84
2019-03-16T21:14:24.109Z,23.95
2019-03-16T21:15:18.281Z,23.87
2019-03-16T21:16:15.163Z,24.12
2019-03-16T21:17:17.366Z,24.12
2019-03-16T21:18:17.451Z,24.10
2019-03-16T21:19:17.302Z,24.08
2019-03-16T21:20:17.265Z,24.09
2019-03-16T21:21:17.223Z,24.21
